ADDS METAR Data INFO
IDs: Format: Raw Decoded Include TAF

Data at: 0435 UTC 28 Jul 2017

KAPY 280415Z AUTO 13011G17KT 10SM CLR 30/18 A2994 RMK AO2 T02990185
KAPY 280355Z AUTO 14011G15KT 10SM CLR 30/17 A2993 RMK AO2 T03040180
KAPY 280335Z AUTO 14009G18KT 10SM CLR 31/17 A2992 RMK AO2 T03090176
KAPY 280315Z AUTO 13011G17KT 10SM CLR 31/16 A2992 RMK AO2 T03150168
KAPY 280255Z AUTO 13012G20KT 10SM CLR 32/16 A2991 RMK AO2 T03210166
KAPY 280235Z AUTO 13012G22KT 10SM CLR 32/16 A2991 RMK AO2 T03250159
KAPY 280215Z AUTO 13009G17KT 10SM CLR 33/14 A2991 RMK AO2 T03310145
KAPY 280155Z AUTO 12012G17KT 10SM CLR 33/15 A2990 RMK AO2 T03350150
KAPY 280135Z AUTO 13013G20KT 10SM CLR 33/15 A2989 RMK AO2 T03400149
KAPY 280115Z AUTO 11012G20KT 10SM CLR 34/15 A2989 RMK AO2 T03470150
KAPY 280055Z AUTO 12015G23KT 10SM CLR 35/15 A2988 RMK AO2 T03550155
KAPY 280035Z AUTO 12011G20KT 10SM CLR 36/13 A2987 RMK AO2 T03620141
KAPY 280015Z AUTO 12015G21KT 10SM CLR 36/14 A2987 RMK AO2 T03670141
KAPY 272355Z AUTO 12011G20KT 10SM CLR 37/15 A2987 RMK AO2 T03740148
KAPY 272335Z AUTO 12011G17KT 10SM SCT080 37/15 A2987 RMK AO2 T03730147
KAPY 272315Z AUTO 11010G20KT 10SM SCT080 37/15 A2987 RMK AO2 T03770148
KAPY 272255Z AUTO 11016G21KT 10SM SCT080 38/15 A2987 RMK AO2 T03850151
KAPY 272235Z AUTO 12015G24KT 10SM SCT080 37/15 A2988 RMK AO2 T03800151
KAPY 272215Z AUTO 14012G25KT 10SM SCT080 38/15 A2988 RMK AO2 T03820151
KAPY 272155Z AUTO 12013G21KT 100V160 10SM SCT080 39/15 A2989 RMK AO2 LTG DSNT S T03930148
KAPY 272135Z AUTO 13013G18KT 10SM SCT080 38/13 A2990 RMK AO2 LTG DSNT SW T03890141
KAPY 272115Z AUTO 15012G20KT 10SM SCT080 39/13 A2991 RMK AO2 LTG DSNT S AND SW T03950141
KAPY 272055Z AUTO 15013G19KT 10SM CLR 38/13 A2991 RMK AO2 T03900134
KAPY 272035Z AUTO 16009G19KT 10SM SCT075 38/14 A2992 RMK AO2 T03870143
KAPY 272015Z AUTO 11008G17KT 10SM SCT075 38/15 A2993 RMK AO2 T03820147
KAPY 271955Z AUTO 12013G20KT 10SM SCT075 38/15 A2994 RMK AO2 T03830153
KAPY 271935Z AUTO 13009G19KT 10SM CLR 38/15 A2995 RMK AO2 T03810156
KAPY 271915Z AUTO 12010G20KT 10SM CLR 37/16 A2996 RMK AO2 T03740162
KAPY 271855Z AUTO 13011G18KT 10SM CLR 37/15 A2996 RMK AO2 T03750153
KAPY 271835Z AUTO 16012G21KT 10SM CLR 37/16 A2997 RMK AO2 T03700161
KAPY 271815Z AUTO 13008G16KT 10SM SCT060 36/16 A2998 RMK AO2 T03670168
KAPY 271755Z AUTO 17012G20KT 10SM CLR 36/16 A2999 RMK AO2 T03610165
KAPY 271735Z AUTO 15012G17KT 10SM CLR 36/16 A2999 RMK AO2 T03600166
KAPY 271715Z AUTO 16009G18KT 130V200 10SM CLR 35/16 A3000 RMK AO2 T03510169
KAPY 271655Z AUTO 13010G18KT 10SM CLR 35/17 A3000 RMK AO2 T03470176
KAPY 271635Z AUTO 15010G17KT 120V180 10SM CLR 33/17 A3000 RMK AO2 T03410179
KAPY 271615Z AUTO 14009G20KT 10SM CLR 33/17 A3001 RMK AO2 T03350179
KAPY 271555Z AUTO 13010G16KT 10SM CLR 33/18 A3001 RMK AO2 T03320181
KAPY 271535Z AUTO 14011G17KT 10SM CLR 32/18 A3001 RMK AO2 T03250190
KAPY 271515Z AUTO 15010G20KT 10SM CLR 31/19 A3001 RMK AO2 T03160192
KAPY 271455Z AUTO 13011G16KT 10SM CLR 31/19 A3001 RMK AO2 T03100195
KAPY 271435Z AUTO 14012G17KT 10SM CLR 30/20 A3001 RMK AO2 T03030197
KAPY 271415Z AUTO 14011G19KT 10SM CLR 28/20 A3000 RMK AO2 T02910200
KAPY 271355Z AUTO 15011G17KT 10SM CLR 28/20 A3001 RMK AO2 T02870205
KAPY 271335Z AUTO 14008KT 10SM CLR 27/20 A3001 RMK AO2 T02790207
KAPY 271315Z AUTO 14007KT 10SM CLR 26/21 A3000 RMK AO2 T02690211
KAPY 271255Z AUTO 14007KT 10SM CLR 26/21 A2999 RMK AO2 T02610212
KAPY 271235Z AUTO 13007KT 10SM CLR 25/21 A2999 RMK AO2 T02550212
KAPY 271215Z AUTO 13005KT 10SM CLR 25/21 A2999 RMK AO2 T02510212
KAPY 271155Z AUTO 13006KT 10SM CLR 25/21 A2999 RMK AO2 T02500211
KAPY 271135Z AUTO 13006KT 10SM CLR 25/21 A2999 RMK AO2 T02510211
KAPY 271115Z AUTO 13008KT 10SM CLR 25/21 A2998 RMK AO2 T02520210
KAPY 271055Z AUTO 14007KT 10SM CLR 25/21 A2998 RMK AO2 T02520208
KAPY 271035Z AUTO 14006KT 10SM CLR 25/20 A2998 RMK AO2 T02520207
KAPY 271015Z AUTO 14005KT 10SM CLR 25/20 A2998 RMK AO2 T02550208
KAPY 270955Z AUTO 13007KT 10SM CLR 25/20 A2998 RMK AO2 T02550207
KAPY 270935Z AUTO 13006KT 10SM CLR 25/20 A2998 RMK AO2 T02570206
KAPY 270915Z AUTO 13006KT 10SM CLR 26/20 A2998 RMK AO2 T02580205
KAPY 270855Z AUTO 12006KT 10SM CLR 26/20 A2998 RMK AO2 T02600203
KAPY 270835Z AUTO 12008KT 10SM CLR 26/20 A2998 RMK AO2 T02620201
KAPY 270815Z AUTO 13008KT 10SM CLR 26/20 A2999 RMK AO2 T02630200
KAPY 270755Z AUTO 13007KT 10SM CLR 26/20 A3000 RMK AO2 T02650201
KAPY 270735Z AUTO 13007KT 10SM CLR 26/20 A3001 RMK AO2 T02660202
KAPY 270715Z AUTO 13006KT 10SM CLR 26/20 A3001 RMK AO2 T02690205
KAPY 270655Z AUTO 12007G15KT 10SM CLR 27/20 A3002 RMK AO2 T02700205
KAPY 270635Z AUTO 13008G16KT 10SM CLR 27/20 A3003 RMK AO2 T02720205
KAPY 270615Z AUTO 13010G14KT 10SM CLR 27/20 A3002 RMK AO2 T02750203
KAPY 270555Z AUTO 13009G15KT 10SM CLR 27/20 A3002 RMK AO2 T02770203
KAPY 270535Z AUTO 13009G17KT 10SM CLR 27/20 A3002 RMK AO2 T02800202
KAPY 270515Z AUTO 14010G16KT 10SM CLR 28/20 A3002 RMK AO2 T02820202
KAPY 270455Z AUTO 13009G16KT 10SM CLR 28/20 A3002 RMK AO2 T02850200
KAPY 270435Z AUTO 13009G17KT 10SM CLR 28/20 A3002 RMK AO2 T02860201
KAPY 270415Z AUTO 13012G19KT 10SM CLR 28/20 A3001 RMK AO2 T02890205
KAPY 270355Z AUTO 13012G17KT 10SM CLR 28/21 A3001 RMK AO2 T02900212
KAPY 270335Z AUTO 13014G21KT 10SM CLR 29/21 A3000 RMK AO2 T02950210
KAPY 270315Z AUTO 13010G19KT 10SM CLR 30/20 A3000 RMK AO2 T02970206
KAPY 270255Z AUTO 12011G19KT 10SM CLR 30/20 A2999 RMK AO2 T03000204
KAPY 270235Z AUTO 12013G20KT 10SM CLR 30/20 A2999 RMK AO2 T03050200
KAPY 270215Z AUTO 12008G17KT 10SM CLR 30/18 A2998 RMK AO2 T03070191
KAPY 270155Z AUTO 11015G22KT 10SM CLR 31/18 A2998 RMK AO2 T03110191
KAPY 270135Z AUTO 11016G26KT 10SM CLR 31/18 A2997 RMK AO2 T03180190
KAPY 270115Z AUTO 11016G20KT 10SM CLR 32/18 A2996 RMK AO2 T03290184
KAPY 270055Z AUTO 11012G18KT 10SM CLR 33/17 A2996 RMK AO2 T03370175
KAPY 270035Z AUTO 11014G20KT 10SM CLR 34/16 A2995 RMK AO2 T03440165
KAPY 270015Z AUTO 11014G21KT 10SM CLR 35/15 A2994 RMK AO2 T03510158
KAPY 262355Z AUTO 11014G21KT 10SM CLR 36/15 A2994 RMK AO2 T03580151
KAPY 262335Z AUTO 11015G25KT 10SM CLR 36/13 A2993 RMK AO2 T03630132
KAPY 262315Z AUTO 13014G26KT 10SM CLR 36/12 A2993 RMK AO2 LTG DSNT N T03660126
KAPY 262255Z AUTO 12017G24KT 10SM CLR 36/12 A2993 RMK AO2 LTG DSNT N T03670122
KAPY 262235Z AUTO 14014G25KT 10SM CLR 36/14 A2993 RMK AO2 T03650145
KAPY 262215Z AUTO 13016G25KT 10SM CLR 36/15 A2994 RMK AO2 T03650158
KAPY 262155Z AUTO 13018G24KT 10SM SCT080 SCT090 36/16 A2994 RMK AO2 T03680163
KAPY 262135Z AUTO 14015G22KT 10SM SCT090 SCT110 38/15 A2994 RMK AO2 T03840156
KAPY 262115Z AUTO 16015G23KT 10SM CLR 39/15 A2995 RMK AO2 T03930148
KAPY 262055Z AUTO 15014G22KT 10SM SCT080 38/15 A2996 RMK AO2 T03850154
KAPY 262035Z AUTO 17011G19KT 10SM SCT080 38/15 A2996 RMK AO2 LTG DSNT E T03860155
KAPY 262015Z AUTO 15012G20KT 10SM SCT070 37/15 A2997 RMK AO2 LTG DSNT E T03790155
KAPY 261955Z AUTO 15010G24KT 10SM CLR 37/16 A2997 RMK AO2 T03750160
KAPY 261935Z AUTO 17009G18KT 10SM SCT060 37/16 A2998 RMK AO2 T03790160
KAPY 261915Z AUTO 17014G20KT 10SM SCT060 37/17 A2999 RMK AO2 T03720170
KAPY 261855Z AUTO 15009G19KT 10SM CLR 37/17 A3000 RMK AO2 T03720172
KAPY 261835Z AUTO 15014G21KT 10SM SCT060 36/17 A3001 RMK AO2 LTG DSNT SE T03670174
KAPY 261815Z AUTO 13013G20KT 10SM SCT060 36/17 A3002 RMK AO2 T03680172
KAPY 261755Z AUTO 14011G24KT 10SM SCT060 35/17 A3002 RMK AO2 T03570171
KAPY 261735Z AUTO 15012G19KT 10SM SCT055 36/17 A3003 RMK AO2 LTG DSNT SE T03610173
KAPY 261715Z AUTO 15011G21KT 10SM CLR 35/17 A3004 RMK AO2 T03520176
KAPY 261655Z AUTO 14013G23KT 120V180 10SM CLR 35/17 A3004 RMK AO2 T03480176